Time;durP1;ratioP1;P1;durP2;ratioP2;P2;SDS_P1;SDS_P2;PMS_P1;PMS_P2;Temp;Humidity;BMP_temperature;BMP_pressure;BME280_temperature;BME280_humidity;BME280_pressure;Samples;Min_cycle;Max_cycle;Signal;HPM_P1;HPM_P2
2022/08/03 00:01:53;;;;;;;1.67;0.60;;;;;;;;;;5052825;28;20032;-46
2022/08/03 00:04:19;;;;;;;0.70;0.45;;;;;;;;;;5052716;28;20438;-44
2022/08/03 00:06:45;;;;;;;1.35;0.30;;;;;;;;;;5052777;28;20490;-45
2022/08/03 00:09:11;;;;;;;1.77;0.45;;;;;;;;;;5052746;28;20059;-46
2022/08/03 00:11:37;;;;;;;2.88;0.68;;;25.30;61.00;;;;;;5052728;28;20037;-46
2022/08/03 00:14:05;;;;;;;1.90;0.50;;;26.70;60.00;;;;;;5052717;28;20021;-46
2022/08/03 00:16:31;;;;;;;1.02;0.50;;;;;;;;;;5052573;28;20159;-45
2022/08/03 00:18:57;;;;;;;3.50;0.60;;;;;;;;;;5052513;28;20064;-49
2022/08/03 00:21:23;;;;;;;1.05;0.57;;;;;;;;;;5052552;28;20479;-45
2022/08/03 00:23:49;;;;;;;2.03;0.57;;;;;;;;;;5052538;28;20151;-46
2022/08/03 00:26:15;;;;;;;2.00;0.40;;;;;;;;;;5052684;28;20106;-46
2022/08/03 00:28:41;;;;;;;1.13;0.50;;;;;;;;;;5052396;28;20048;-46
2022/08/03 00:31:07;;;;;;;2.63;0.57;;;;;;;;;;5052339;28;20498;-47
2022/08/03 00:33:33;;;;;;;2.70;0.68;;;;;;;;;;5052393;28;20061;-45
2022/08/03 00:35:59;;;;;;;1.67;0.68;;;;;;;;;;5052434;28;20086;-46
2022/08/03 00:38:25;;;;;;;1.05;0.52;;;;;;;;;;5052285;28;20388;-45
2022/08/03 00:40:51;;;;;;;2.60;0.95;;;;;;;;;;5052295;28;20108;-45
2022/08/03 00:43:17;;;;;;;2.65;0.57;;;;;;;;;;5052244;28;20403;-46
2022/08/03 00:45:43;;;;;;;1.83;0.45;;;26.50;59.60;;;;;;5052240;28;20097;-44
2022/08/03 00:48:11;;;;;;;1.30;0.40;;;26.60;60.00;;;;;;5052145;28;20464;-45
2022/08/03 00:50:41;;;;;;;3.30;0.50;;;26.40;69.80;;;;;;5052115;28;20467;-45
2022/08/03 00:53:13;;;;;;;2.00;0.77;;;26.40;92.00;;;;;;5052209;28;20043;-46
2022/08/03 00:55:39;;;;;;;2.03;0.70;;;;;;;;;;5052230;28;20074;-46
2022/08/03 00:58:05;;;;;;;1.83;0.70;;;26.50;92.00;;;;;;5052051;28;20490;-45
2022/08/03 01:00:32;;;;;;;1.58;0.68;;;26.40;91.90;;;;;;5051971;28;20468;-45
2022/08/03 01:02:58;;;;;;;1.42;0.40;;;26.50;92.10;;;;;;5052093;28;20037;-45
2022/08/03 01:05:24;;;;;;;0.65;0.50;;;26.80;92.30;;;;;;5052032;28;20025;-45
2022/08/03 01:08:09;;;;;;;1.88;0.77;;;26.80;92.30;;;;;;5052239;28;20071;-45
2022/08/03 01:10:50;;;;;;;1.45;0.70;;;26.50;56.60;;;;;;5054176;28;20383;-45
2022/08/03 01:13:26;;;;;;;2.90;0.85;;;26.80;92.20;;;;;;5056124;28;20119;-45
2022/08/03 01:16:24;;;;;;;1.42;0.50;;;26.50;60.20;;;;;;5055995;28;20017;-46
2022/08/03 01:19:16;;;;;;;2.55;0.52;;;26.80;92.20;;;;;;5055566;28;20110;-45
2022/08/03 01:21:51;;;;;;;2.45;0.80;;;26.50;56.50;;;;;;5055911;28;20039;-46
2022/08/03 01:24:33;;;;;;;1.25;0.65;;;26.70;85.10;;;;;;5055769;28;20025;-46
2022/08/03 01:27:09;;;;;;;2.78;0.85;;;26.50;92.00;;;;;;5056034;28;20036;-45
2022/08/03 01:30:04;;;;;;;1.40;0.60;;;26.40;90.30;;;;;;5055786;28;20032;-47
2022/08/03 01:32:54;;;;;;;1.95;0.60;;;26.50;92.00;;;;;;5055608;28;20029;-46
2022/08/03 01:35:41;;;;;;;0.93;0.60;;;26.00;92.00;;;;;;5055656;28;20450;-46
2022/08/03 01:38:24;;;;;;;2.45;0.57;;;26.40;56.50;;;;;;5055293;28;20117;-46
2022/08/03 01:40:53;;;;;;;1.45;0.60;;;26.70;92.10;;;;;;5055501;28;20104;-46
2022/08/03 01:43:22;;;;;;;1.90;0.68;;;26.50;58.10;;;;;;5055418;28;20025;-44
2022/08/03 01:45:50;;;;;;;2.08;0.63;;;26.60;92.20;;;;;;5055423;28;20024;-46
2022/08/03 01:48:17;;;;;;;2.83;0.47;;;26.80;92.10;;;;;;5055383;28;20028;-46
2022/08/03 01:50:45;;;;;;;1.50;0.60;;;26.40;59.80;;;;;;5055311;28;20483;-46
2022/08/03 01:53:15;;;;;;;2.00;0.70;;;26.30;59.80;;;;;;5055522;28;20036;-45
2022/08/03 01:55:46;;;;;;;2.05;0.45;;;26.60;64.60;;;;;;5055203;28;20100;-45
2022/08/03 01:58:14;;;;;;;1.75;0.47;;;26.00;91.90;;;;;;5055094;28;20067;-45
2022/08/03 02:00:41;;;;;;;1.70;0.80;;;26.30;92.10;;;;;;5055067;28;20476;-46
2022/08/03 02:03:08;;;;;;;2.13;0.60;;;25.80;86.90;;;;;;5054897;28;20033;-46
2022/08/03 02:05:35;;;;;;;1.85;0.82;;;;;;;;;;5055044;28;20029;-47
2022/08/03 02:08:03;;;;;;;1.67;0.60;;;26.40;60.30;;;;;;5054958;28;20389;-45
2022/08/03 02:10:31;;;;;;;1.73;0.68;;;26.30;60.00;;;;;;5054755;28;20021;-44
2022/08/03 02:13:00;;;;;;;2.55;0.73;;;26.60;66.00;;;;;;5054844;28;20078;-46
2022/08/03 02:15:27;;;;;;;2.70;0.90;;;26.50;92.20;;;;;;5054808;28;20028;-45
2022/08/03 02:17:54;;;;;;;1.63;0.60;;;26.70;63.90;;;;;;5054665;28;20480;-44
2022/08/03 02:20:20;;;;;;;2.50;0.73;;;26.30;92.20;;;;;;5055008;28;20487;-46
2022/08/03 02:22:46;;;;;;;2.10;0.63;;;26.70;92.30;;;;;;5053876;28;20483;-47
2022/08/03 02:25:14;;;;;;;2.90;0.90;;;26.50;92.20;;;;;;5054650;28;20048;-43
2022/08/03 02:27:49;;;;;;;0.80;0.50;;;26.50;92.10;;;;;;5054608;28;20556;-46
2022/08/03 02:30:15;;;;;;;1.80;0.85;;;;;;;;;;5054612;28;20035;-48
2022/08/03 02:32:46;;;;;;;3.30;0.90;;;26.00;91.90;;;;;;5054495;28;20483;-48
2022/08/03 02:35:16;;;;;;;2.00;0.60;;;26.30;92.00;;;;;;5054523;28;20108;-46
2022/08/03 02:37:45;;;;;;;;;;;26.30;60.60;;;;;;5054642;28;20068;-50
2022/08/03 02:40:12;;;;;;;2.08;0.80;;;26.10;77.50;;;;;;5054374;28;19905;-46
2022/08/03 02:42:40;;;;;;;2.72;0.70;;;26.10;92.00;;;;;;5054690;28;20391;-46
2022/08/03 02:45:13;;;;;;;3.95;0.60;;;26.40;59.90;;;;;;5054226;28;20028;-48
2022/08/03 02:47:41;;;;;;;2.70;0.65;;;26.20;59.90;;;;;;5054321;28;20059;-47
2022/08/03 02:50:11;;;;;;;1.88;0.70;;;26.40;85.50;;;;;;5054186;28;20017;-46
2022/08/03 02:52:38;;;;;;;3.95;0.95;;;26.30;60.00;;;;;;5054091;28;20032;-46
2022/08/03 02:55:06;;;;;;;2.05;0.70;;;26.10;92.00;;;;;;5054074;28;20021;-49
2022/08/03 02:57:34;;;;;;;1.55;0.70;;;26.30;60.00;;;;;;5054050;28;20037;-48
2022/08/03 03:00:01;;;;;;;2.58;0.68;;;26.20;57.80;;;;;;5054396;28;20032;-45
2022/08/03 03:02:27;;;;;;;2.55;1.02;;;26.30;58.10;;;;;;5053957;28;20025;-46
2022/08/03 03:04:55;;;;;;;1.75;0.70;;;26.50;92.20;;;;;;5053980;28;20175;-46
2022/08/03 03:07:21;;;;;;;3.80;0.73;;;24.50;58.00;;;;;;5054167;28;20025;-45
2022/08/03 03:09:47;;;;;;;3.22;0.90;;;26.50;68.30;;;;;;5053847;28;20066;-46
2022/08/03 03:12:14;;;;;;;2.65;0.68;;;26.10;91.90;;;;;;5053780;28;20036;-44
2022/08/03 03:14:40;;;;;;;2.83;0.90;;;26.60;92.20;;;;;;5053797;28;20014;-45
2022/08/03 03:17:08;;;;;;;1.77;0.80;;;26.30;92.20;;;;;;5053632;28;20505;-47
2022/08/03 03:19:35;;;;;;;2.28;0.75;;;26.30;87.80;;;;;;5053924;28;20025;-45
2022/08/03 03:22:03;;;;;;;3.85;0.95;;;26.50;77.10;;;;;;5053523;28;20025;-47
2022/08/03 03:24:29;;;;;;;2.50;0.70;;;;;;;;;;5053514;28;20390;-47
2022/08/03 03:26:55;;;;;;;3.50;0.98;;;;;;;;;;5053479;28;20093;-45
2022/08/03 03:29:21;;;;;;;4.10;1.13;;;;;;;;;;5053369;28;20097;-45
2022/08/03 03:31:48;;;;;;;3.33;1.08;;;;;;;;;;5053675;28;20021;-47
2022/08/03 03:34:14;;;;;;;4.05;1.10;;;26.30;92.00;;;;;;5053359;28;20399;-44
2022/08/03 03:36:39;;;;;;;3.25;0.90;;;26.60;92.10;;;;;;5053205;28;20041;-46
2022/08/03 03:39:05;;;;;;;2.40;0.70;;;26.40;91.90;;;;;;5053184;28;20037;-45
2022/08/03 03:41:31;;;;;;;3.22;1.02;;;26.80;80.20;;;;;;5053248;28;20096;-44
2022/08/03 03:43:57;;;;;;;5.57;1.05;;;;;;;;;;5053184;28;20047;-47
2022/08/03 03:46:23;;;;;;;2.35;1.08;;;26.70;92.00;;;;;;5053124;28;20488;-45
2022/08/03 03:48:49;;;;;;;4.88;1.23;;;26.20;92.00;;;;;;5053067;28;20100;-45
2022/08/03 03:51:15;;;;;;;4.72;0.82;;;;;;;;;;5052982;28;20079;-45
2022/08/03 03:53:56;;;;;;;2.70;0.73;;;26.30;59.80;;;;;;5052935;28;20029;-47
2022/08/03 03:56:23;;;;;;;7.20;1.20;;;;;;;;;;5053280;28;20028;-52
2022/08/03 03:58:49;;;;;;;4.07;1.00;;;;;;;;;;5052837;28;20029;-54
2022/08/03 04:01:15;;;;;;;3.45;0.50;;;26.20;57.90;;;;;;5052810;28;20028;-53
2022/08/03 04:03:41;;;;;;;3.67;1.05;;;;;;;;;;5052698;28;20033;-51
2022/08/03 04:11:42;;;;;;;5.10;0.82;;;25.90;91.90;;;;;;5052714;28;20143;-51
2022/08/03 04:14:23;;;;;;;2.33;1.00;;;26.30;92.10;;;;;;5052607;28;20021;-52
2022/08/03 04:16:53;;;;;;;3.75;0.93;;;26.10;59.50;;;;;;5052927;28;20380;-54
2022/08/03 04:19:27;;;;;;;2.58;0.95;;;26.20;59.50;;;;;;5052438;28;20032;-54
2022/08/03 04:21:59;;;;;;;5.18;1.00;;;26.10;59.60;;;;;;5052552;28;20023;-51
2022/08/03 04:24:33;;;;;;;2.67;1.02;;;26.10;59.60;;;;;;5052471;28;20090;-50
2022/08/03 04:27:01;;;;;;;3.22;0.98;;;25.90;91.60;;;;;;5052534;28;20029;-51
2022/08/03 04:29:30;;;;;;;2.83;1.27;;;26.30;76.00;;;;;;5052389;28;20079;-52
2022/08/03 04:31:58;;;;;;;2.80;0.93;;;26.10;59.40;;;;;;5052500;28;20096;-53
2022/08/03 04:34:24;;;;;;;5.65;1.30;;;26.30;91.90;;;;;;5052418;28;20546;-51
2022/08/03 04:36:55;;;;;;;4.13;1.00;;;26.50;92.00;;;;;;5052152;28;20076;-53
2022/08/03 04:39:25;;;;;;;1.90;0.80;;;26.20;73.50;;;;;;5052176;28;20123;-50
2022/08/03 04:41:58;;;;;;;3.50;1.27;;;26.10;84.20;;;;;;5052252;28;20057;-52
2022/08/03 04:44:25;;;;;;;4.82;1.15;;;26.10;59.30;;;;;;5051822;28;20094;-50
2022/08/03 04:46:52;;;;;;;3.08;0.95;;;25.80;91.60;;;;;;5052456;28;20143;-48
2022/08/03 04:49:20;;;;;;;2.95;0.88;;;26.10;91.80;;;;;;5052339;28;20433;-54
2022/08/03 04:51:46;;;;;;;3.70;0.90;;;;;;;;;;5052116;28;20021;-54
2022/08/03 04:54:12;;;;;;;2.95;1.05;;;26.30;59.30;;;;;;5052075;28;20487;-52
2022/08/03 04:56:42;;;;;;;2.00;0.90;;;26.00;91.80;;;;;;5052032;28;20017;-54
2022/08/03 04:59:08;;;;;;;2.53;0.82;;;26.10;59.10;;;;;;5052039;28;20052;-54
2022/08/03 05:01:34;;;;;;;2.08;0.80;;;26.20;91.80;;;;;;5051938;28;20116;-54
2022/08/03 05:04:00;;;;;;;2.90;1.00;;;;;;;;;;5052318;28;20460;-55
2022/08/03 05:06:26;;;;;;;2.22;0.80;;;26.00;91.70;;;;;;5051983;28;20033;-56
2022/08/03 05:08:52;;;;;;;3.05;1.10;;;26.30;91.70;;;;;;5052053;28;20054;-53
2022/08/03 05:11:18;;;;;;;2.65;1.00;;;26.40;91.80;;;;;;5051992;28;20032;-54
2022/08/03 05:13:44;;;;;;;4.90;1.20;;;25.80;91.60;;;;;;5051897;28;20021;-54
2022/08/03 05:16:11;;;;;;;4.97;0.80;;;26.30;91.80;;;;;;5052204;28;20021;-52
2022/08/03 05:18:37;;;;;;;3.60;1.27;;;;;;;;;;5051750;28;20471;-52
2022/08/03 05:21:03;;;;;;;3.55;0.85;;;;;;;;;;5051854;28;20100;-51
2022/08/03 05:23:29;;;;;;;3.42;0.90;;;26.20;91.60;;;;;;5051810;28;20085;-54
2022/08/03 05:25:55;;;;;;;2.85;1.30;;;26.20;91.60;;;;;;5051833;28;20483;-49
2022/08/03 05:28:21;;;;;;;4.03;0.98;;;26.00;80.30;;;;;;5050522;28;20380;-46
2022/08/03 05:30:47;;;;;;;3.03;1.00;;;;;;;;;;5051742;28;20475;-46
2022/08/03 05:33:13;;;;;;;2.20;0.80;;;;;;;;;;5051996;28;20024;-46
2022/08/03 05:35:39;;;;;;;4.07;0.70;;;26.00;57.20;;;;;;5051591;28;20036;-47
2022/08/03 05:38:05;;;;;;;5.00;1.35;;;25.80;58.30;;;;;;5051471;28;20186;-48
2022/08/03 05:40:31;;;;;;;3.13;0.95;;;;;;;;;;5051905;28;20041;-45
2022/08/03 05:42:57;;;;;;;4.05;0.88;;;;;;;;;;5051592;28;20032;-49
2022/08/03 05:45:24;;;;;;;2.88;1.30;;;26.40;91.40;;;;;;5051570;28;20495;-50
2022/08/03 05:47:49;;;;;;;3.28;1.00;;;25.90;91.30;;;;;;5051633;28;20028;-50
2022/08/03 05:50:18;;;;;;;1.27;0.80;;;26.10;91.20;;;;;;5051589;28;20017;-46
2022/08/03 05:52:44;;;;;;;3.83;1.00;;;26.40;91.40;;;;;;5051526;28;20736;-49
2022/08/03 05:55:10;;;;;;;2.90;0.77;;;25.80;91.10;;;;;;5051556;28;20104;-45
2022/08/03 05:57:37;;;;;;;3.60;1.30;;;27.00;63.70;;;;;;5053435;28;20023;-47
2022/08/03 06:00:08;;;;;;;2.80;1.30;;;26.30;62.10;;;;;;5055109;28;20492;-46
2022/08/03 06:02:33;;;;;;;3.08;0.93;;;26.30;91.30;;;;;;5055006;28;20419;-49
2022/08/03 06:04:59;;;;;;;3.72;1.10;;;26.20;87.90;;;;;;5055119;28;20036;-46
2022/08/03 06:07:25;;;;;;;2.50;0.90;;;;;;;;;;5055008;28;20025;-46
2022/08/03 06:09:51;;;;;;;2.40;0.93;;;26.30;71.20;;;;;;5054955;28;20500;-46
2022/08/03 06:12:17;;;;;;;1.70;0.77;;;;;;;;;;5054918;28;20056;-45
2022/08/03 06:14:43;;;;;;;2.40;1.00;;;;;;;;;;5055154;28;20029;-46
2022/08/03 06:17:09;;;;;;;2.67;0.95;;;;;;;;;;5054966;28;20025;-45
2022/08/03 06:19:35;;;;;;;2.15;0.57;;;;;;;;;;5054977;28;20040;-46
2022/08/03 06:22:01;;;;;;;1.20;0.60;;;;;;;;;;5054829;28;20089;-45
2022/08/03 06:24:27;;;;;;;2.75;0.65;;;;;;;;;;5054751;28;20025;-46
2022/08/03 06:26:53;;;;;;;2.75;0.70;;;;;;;;;;5054606;28;20039;-46
2022/08/03 06:29:19;;;;;;;4.00;0.80;;;;;;;;;;5054580;28;20025;-45
2022/08/03 06:31:45;;;;;;;2.38;0.93;;;26.20;67.30;;;;;;5054568;28;20029;-45
2022/08/03 06:34:11;;;;;;;3.17;0.80;;;25.30;61.20;;;;;;5054435;28;20434;-44
2022/08/03 06:36:37;;;;;;;3.05;0.93;;;;;;;;;;5054265;28;20055;-48
2022/08/03 06:39:03;;;;;;;3.38;0.95;;;26.00;58.10;;;;;;5054279;28;20037;-46
2022/08/03 06:41:29;;;;;;;4.88;1.02;;;;;;;;;;5054688;28;20532;-45
2022/08/03 06:43:55;;;;;;;4.72;1.05;;;26.00;87.40;;;;;;5054304;28;20585;-47
2022/08/03 06:46:21;;;;;;;3.03;0.68;;;;;;;;;;5054221;28;20029;-46
2022/08/03 06:48:47;;;;;;;2.47;1.00;;;;;;;;;;5054237;28;20029;-46
2022/08/03 06:51:13;;;;;;;2.83;0.65;;;26.00;65.10;;;;;;5054141;28;20029;-46
2022/08/03 06:53:39;;;;;;;8.38;1.30;;;26.10;73.60;;;;;;5054355;28;20074;-47
2022/08/03 06:56:05;;;;;;;2.33;1.02;;;26.00;57.90;;;;;;5054021;28;20100;-49
2022/08/03 06:58:31;;;;;;;2.25;0.82;;;26.30;89.90;;;;;;5053949;28;20064;-49
2022/08/03 07:00:57;;;;;;;2.03;0.95;;;;;;;;;;5054128;28;20495;-49
2022/08/03 07:03:23;;;;;;;1.80;0.95;;;;;;;;;;5053905;28;20025;-46
2022/08/03 07:05:50;;;;;;;8.00;1.50;;;23.60;56.60;;;;;;5053921;28;20025;-45
2022/08/03 07:08:16;;;;;;;3.28;1.20;;;26.00;91.70;;;;;;5053565;28;20017;-51
2022/08/03 07:10:41;;;;;;;3.10;0.77;;;26.30;92.00;;;;;;5054150;28;20060;-50
2022/08/03 07:13:07;;;;;;;5.43;1.50;;;;;;;;;;5053709;28;20017;-47
2022/08/03 07:15:34;;;;;;;4.03;1.30;;;25.80;77.30;;;;;;5053778;28;20029;-51
2022/08/03 07:17:59;;;;;;;3.55;1.13;;;26.00;92.10;;;;;;5053709;28;20364;-48
2022/08/03 07:20:25;;;;;;;4.07;1.23;;;26.00;92.30;;;;;;5053735;28;20027;-52
2022/08/03 07:22:51;;;;;;;4.15;1.25;;;26.10;74.60;;;;;;5053550;28;20036;-50
2022/08/03 07:25:17;;;;;;;4.50;1.13;;;;;;;;;;5053479;28;20029;-50
2022/08/03 07:27:44;;;;;;;7.35;1.73;;;26.00;59.80;;;;;;5053765;28;20389;-51
2022/08/03 07:30:10;;;;;;;3.58;1.33;;;26.20;92.30;;;;;;5053447;28;20032;-51
2022/08/03 07:32:36;;;;;;;7.32;1.17;;;25.90;92.30;;;;;;5053453;28;20052;-52
2022/08/03 07:35:03;;;;;;;4.53;1.75;;;26.10;60.80;;;;;;5053337;28;20472;-51
2022/08/03 07:37:29;;;;;;;5.35;1.40;;;26.00;60.00;;;;;;5053112;28;20127;-52
2022/08/03 07:39:55;;;;;;;6.68;1.60;;;;;;;;;;5053222;28;20104;-51
2022/08/03 07:42:22;;;;;;;9.57;1.42;;;25.50;92.30;;;;;;5053203;28;20083;-46
2022/08/03 07:44:48;;;;;;;5.47;2.05;;;26.30;92.80;;;;;;5053163;28;20053;-46
2022/08/03 07:47:18;;;;;;;10.98;1.55;;;25.80;92.70;;;;;;5053097;28;20037;-46
2022/08/03 07:49:44;;;;;;;;;;;25.90;62.00;;;;;;5053578;28;20029;-46
2022/08/03 07:54:54;;;;;;;5.90;1.70;;;26.20;90.80;;;;;;5053131;28;20564;-46
2022/08/03 07:57:20;;;;;;;4.47;1.52;;;25.80;92.50;;;;;;5052809;28;20021;-47
2022/08/03 07:59:46;;;;;;;5.78;1.45;;;25.90;92.40;;;;;;5052845;28;20032;-46
2022/08/03 08:02:13;;;;;;;4.53;1.55;;;;;;;;;;5052744;28;20035;-46
2022/08/03 08:04:39;;;;;;;6.57;1.70;;;;;;;;;;5052717;28;20090;-46
2022/08/03 08:07:05;;;;;;;7.60;1.75;;;26.10;80.10;;;;;;5052690;28;20024;-46
2022/08/03 08:09:31;;;;;;;6.13;1.50;;;;;;;;;;5052516;28;20031;-47
2022/08/03 08:11:57;;;;;;;4.95;1.35;;;;;;;;;;5052590;28;20086;-46
2022/08/03 08:14:23;;;;;;;5.03;1.70;;;;;;;;;;5052550;28;20036;-46
2022/08/03 08:16:49;;;;;;;7.00;1.50;;;;;;;;;;5052672;28;20072;-50
2022/08/03 08:19:15;;;;;;;4.57;1.85;;;;;;;;;;5051795;28;20084;-45
2022/08/03 08:21:41;;;;;;;4.85;1.80;;;;;;;;;;5052720;28;20025;-47
2022/08/03 08:24:07;;;;;;;4.38;1.48;;;26.10;91.80;;;;;;5052526;28;20094;-47
2022/08/03 08:26:33;;;;;;;4.93;1.60;;;;;;;;;;5052675;28;20020;-47
2022/08/03 08:28:59;;;;;;;6.68;1.50;;;;;;;;;;5052401;28;20467;-46
2022/08/03 08:31:25;;;;;;;4.05;1.42;;;25.90;62.20;;;;;;5052400;28;20077;-46
2022/08/03 08:33:51;;;;;;;9.00;2.08;;;;;;;;;;5052423;28;20480;-46
2022/08/03 08:36:17;;;;;;;11.80;2.13;;;;;;;;;;5052103;28;20063;-47
2022/08/03 08:38:43;;;;;;;4.70;1.75;;;;;;;;;;5052181;28;20041;-45
2022/08/03 08:41:11;;;;;;;5.25;1.95;;;26.30;92.70;;;;;;5052464;28;20065;-44
2022/08/03 08:43:37;;;;;;;4.90;1.23;;;26.40;91.00;;;;;;5052173;28;20441;-47
2022/08/03 08:46:07;;;;;;;6.35;1.40;;;26.20;61.10;;;;;;5052139;28;20017;-47
2022/08/03 08:48:37;;;;;;;6.43;1.30;;;26.30;61.10;;;;;;5052360;28;20029;-46
2022/08/03 08:51:03;;;;;;;6.32;1.63;;;;;;;;;;5052182;28;20028;-47
2022/08/03 08:53:32;;;;;;;6.30;1.75;;;26.30;60.90;;;;;;5052039;28;20035;-49
2022/08/03 08:55:59;;;;;;;10.38;1.85;;;26.50;92.60;;;;;;5051988;28;20017;-50
2022/08/03 08:58:28;;;;;;;4.93;1.48;;;26.30;60.80;;;;;;5051874;28;20468;-46
2022/08/03 09:00:54;;;;;;;7.03;1.58;;;;;;;;;;5052066;28;20429;-46
2022/08/03 09:03:20;;;;;;;7.50;1.90;;;26.70;92.50;;;;;;5051915;28;20096;-47
2022/08/03 09:05:46;;;;;;;5.40;1.60;;;26.60;92.40;;;;;;5052001;28;20014;-46
2022/08/03 09:08:12;;;;;;;2.95;1.50;;;26.50;92.30;;;;;;5051812;28;20361;-44
2022/08/03 09:10:38;;;;;;;5.30;1.40;;;;;;;;;;5051715;28;20163;-48
2022/08/03 09:13:04;;;;;;;5.00;1.30;;;;;;;;;;5051757;28;20033;-46
2022/08/03 09:15:31;;;;;;;4.38;1.20;;;26.60;60.50;;;;;;5051697;28;20110;-46
2022/08/03 09:17:59;;;;;;;12.35;1.83;;;26.90;92.30;;;;;;5052017;28;20438;-46
2022/08/03 09:20:27;;;;;;;4.20;1.45;;;26.50;60.30;;;;;;5051823;28;20083;-46
2022/08/03 09:23:01;;;;;;;4.45;1.40;;;26.20;58.90;;;;;;5051809;28;20025;-45
2022/08/03 09:25:38;;;;;;;5.57;1.38;;;26.80;60.30;;;;;;5051729;28;20021;-45
2022/08/03 09:28:07;;;;;;;4.03;1.60;;;27.00;92.30;;;;;;5052117;28;20033;-46
2022/08/03 09:30:34;;;;;;;8.05;1.50;;;26.60;60.00;;;;;;5052123;28;20025;-46
2022/08/03 09:33:05;;;;;;;6.97;2.35;;;26.80;60.40;;;;;;5055977;28;20032;-46
2022/08/03 09:35:31;;;;;;;10.13;1.85;;;;;;;;;;5055595;28;20029;-46
2022/08/03 09:38:13;;;;;;;6.20;1.33;;;26.80;56.70;;;;;;5054026;28;20407;-46
2022/08/03 09:40:39;;;;;;;4.82;1.67;;;;;;;;;;5055371;28;20041;-45
2022/08/03 09:43:07;;;;;;;4.15;1.70;;;;;;;;;;5055383;28;20017;-45
2022/08/03 09:45:37;;;;;;;6.65;1.98;;;27.30;92.20;;;;;;5055631;28;20055;-45
2022/08/03 09:48:21;;;;;;;;;;;26.90;57.00;;;;;;5056147;28;20488;-47
2022/08/03 09:50:48;;;;;;;8.63;2.40;;;27.10;60.10;;;;;;5055243;28;20003;-46
2022/08/03 09:53:14;;;;;;;6.82;1.77;;;27.20;92.20;;;;;;5055285;28;20064;-45
2022/08/03 09:55:59;;;;;;;6.03;1.63;;;27.40;92.30;;;;;;5055045;28;20521;-45
2022/08/03 09:58:28;;;;;;;4.30;1.60;;;26.70;77.10;;;;;;5054917;28;20060;-45
2022/08/03 10:01:02;;;;;;;6.35;2.10;;;27.10;92.30;;;;;;5055162;28;20023;-46
2022/08/03 10:03:34;;;;;;;10.75;2.08;;;27.10;60.60;;;;;;5054881;28;20024;-45
2022/08/03 10:06:21;;;;;;;8.68;1.50;;;27.30;92.40;;;;;;5055230;28;20108;-47
2022/08/03 10:08:47;;;;;;;8.10;2.03;;;;;;;;;;5054907;28;20040;-46
2022/08/03 10:11:28;;;;;;;8.88;1.58;;;27.10;60.70;;;;;;5054800;28;20120;-45
2022/08/03 10:13:54;;;;;;;9.02;1.90;;;27.40;92.40;;;;;;5054792;28;20394;-47
2022/08/03 10:16:20;;;;;;;7.55;1.40;;;;;;;;;;5053512;28;20031;-47
2022/08/03 10:18:46;;;;;;;6.43;1.60;;;27.40;92.50;;;;;;5054732;28;20091;-45
2022/08/03 10:21:16;;;;;;;7.38;1.70;;;27.10;92.40;;;;;;5054795;28;20025;-45
2022/08/03 10:23:42;;;;;;;8.00;1.70;;;27.30;92.30;;;;;;5054795;28;20056;-46
2022/08/03 10:26:11;;;;;;;8.70;1.58;;;27.40;92.40;;;;;;5054475;28;20009;-46
2022/08/03 10:28:45;;;;;;;6.43;1.50;;;26.90;92.20;;;;;;5054685;28;20387;-46
2022/08/03 10:31:12;;;;;;;6.70;1.45;;;27.40;61.20;;;;;;5054429;28;20017;-44
2022/08/03 10:33:43;;;;;;;5.32;1.45;;;27.70;92.60;;;;;;5054297;28;20029;-45
2022/08/03 10:36:11;;;;;;;7.13;1.33;;;27.50;61.00;;;;;;5052917;28;20060;-47
2022/08/03 10:38:46;;;;;;;3.28;1.10;;;27.40;60.60;;;;;;5054390;28;20505;-44
2022/08/03 10:41:14;;;;;;;10.00;1.60;;;27.90;92.60;;;;;;5054432;28;20017;-45
2022/08/03 10:43:55;;;;;;;8.10;2.10;;;27.60;92.40;;;;;;5052998;28;20108;-45
2022/08/03 10:46:21;;;;;;;6.07;1.30;;;;;;;;;;5053247;28;20399;-44
2022/08/03 10:48:49;;;;;;;6.78;1.88;;;27.50;85.30;;;;;;5054343;28;20032;-45
2022/08/03 10:51:15;;;;;;;7.57;1.80;;;;;;;;;;5054132;28;20021;-46
2022/08/03 10:53:42;;;;;;;10.20;1.80;;;27.60;59.20;;;;;;5054378;28;20025;-45
2022/08/03 10:59:19;;;;;;;11.23;2.20;;;28.00;92.20;;;;;;5054161;28;20048;-49
2022/08/03 11:01:51;;;;;;;7.57;1.60;;;27.80;68.20;;;;;;5053974;28;20021;-50
2022/08/03 11:04:18;;;;;;;5.85;1.70;;;27.80;60.00;;;;;;5053886;28;20056;-48
2022/08/03 11:06:45;;;;;;;5.82;1.55;;;27.60;92.00;;;;;;5054103;28;20379;-49
2022/08/03 11:09:11;;;;;;;6.57;1.55;;;;;;;;;;5054131;28;20513;-48
2022/08/03 11:11:38;;;;;;;5.75;1.35;;;28.10;73.30;;;;;;5053766;28;20056;-48
2022/08/03 11:14:06;;;;;;;6.65;2.35;;;27.50;59.50;;;;;;5054003;28;20572;-54
2022/08/03 11:16:36;;;;;;;7.88;2.15;;;28.20;92.00;;;;;;5053764;28;20029;-50
2022/08/03 11:19:05;;;;;;;6.95;1.63;;;27.50;91.60;;;;;;5053945;28;20119;-46
2022/08/03 11:24:38;;;;;;;7.95;1.95;;;27.70;89.60;;;;;;5053832;28;20545;-48
2022/08/03 11:27:21;;;;;;;10.93;1.95;;;26.70;88.20;;;;;;5053762;28;20017;-48
2022/08/03 11:29:57;;;;;;;4.40;1.60;;;27.10;50.20;;;;;;5053422;28;20438;-47
2022/08/03 11:32:42;;;;;;;11.65;2.13;;;26.80;47.70;;;;;;5053275;28;20032;-47
2022/08/03 11:35:25;;;;;;;7.88;1.80;;;26.30;64.50;;;;;;5053565;28;20033;-46
2022/08/03 11:37:56;;;;;;;7.28;2.28;;;26.00;45.50;;;;;;5053075;28;20076;-47
2022/08/03 11:40:38;;;;;;;7.35;1.95;;;26.20;71.20;;;;;;5053139;28;20426;-47
2022/08/03 11:43:06;;;;;;;7.55;1.70;;;26.50;83.00;;;;;;5051846;28;20032;-48
2022/08/03 11:45:32;;;;;;;6.72;1.52;;;26.30;82.60;;;;;;5053102;28;20101;-47
2022/08/03 11:48:01;;;;;;;7.53;2.22;;;25.90;82.90;;;;;;5052959;28;20025;-47
2022/08/03 11:50:35;;;;;;;7.28;2.00;;;25.70;47.00;;;;;;5052998;28;20025;-47
2022/08/03 11:53:01;;;;;;;11.98;2.40;;;;;;;;;;5053034;28;20025;-47
2022/08/03 11:55:29;;;;;;;8.18;2.05;;;25.70;49.60;;;;;;5051997;28;20553;-46
2022/08/03 11:57:58;;;;;;;7.20;1.90;;;25.70;51.60;;;;;;5052800;28;20032;-47
2022/08/03 12:00:31;;;;;;;10.98;2.20;;;25.40;85.50;;;;;;5052823;28;20526;-47
2022/08/03 12:03:10;;;;;;;7.53;2.22;;;25.80;72.00;;;;;;5052770;28;20017;-48
2022/08/03 12:05:51;;;;;;;6.50;2.25;;;25.90;85.90;;;;;;5052738;28;20033;-48
2022/08/03 12:08:29;;;;;;;6.43;1.92;;;25.70;85.40;;;;;;5052649;28;20090;-50
2022/08/03 12:10:56;;;;;;;5.57;1.50;;;25.60;59.90;;;;;;5052684;28;20028;-49
2022/08/03 12:13:24;;;;;;;8.45;2.10;;;25.20;83.50;;;;;;5052590;28;20032;-45
2022/08/03 12:15:52;;;;;;;11.32;2.00;;;25.30;83.20;;;;;;5052557;28;20017;-46
2022/08/03 12:18:20;;;;;;;6.93;1.65;;;24.90;83.20;;;;;;5052475;28;20036;-47
2022/08/03 12:20:48;;;;;;;4.93;1.80;;;25.30;48.80;;;;;;5052648;28;20419;-45
2022/08/03 12:23:14;;;;;;;4.63;1.70;;;25.50;87.00;;;;;;5052708;28;20021;-46
2022/08/03 12:25:41;;;;;;;8.43;1.95;;;25.30;50.40;;;;;;5052776;28;20024;-44
2022/08/03 12:28:07;;;;;;;7.47;1.98;;;;;;;;;;5052329;28;20020;-45
2022/08/03 12:30:33;;;;;;;4.22;1.60;;;;;;;;;;5052342;28;20029;-46
2022/08/03 12:32:59;;;;;;;6.43;1.90;;;;;;;;;;5052349;28;20049;-45
2022/08/03 12:35:25;;;;;;;8.02;2.63;;;;;;;;;;5052210;28;20121;-44
2022/08/03 12:37:51;;;;;;;7.30;1.83;;;;;;;;;;5052053;28;20048;-46
2022/08/03 12:40:26;;;;;;;4.70;1.73;;;25.00;44.10;;;;;;5052218;28;20086;-45
2022/08/03 12:42:52;;;;;;;5.03;1.70;;;24.60;83.20;;;;;;5052208;28;20087;-46
2022/08/03 12:45:23;;;;;;;5.75;1.80;;;25.00;84.30;;;;;;5052233;28;20088;-46
2022/08/03 12:47:57;;;;;;;7.32;1.90;;;24.70;55.60;;;;;;5052130;28;20103;-46
2022/08/03 12:50:27;;;;;;;3.55;1.50;;;25.00;45.40;;;;;;5052173;28;20036;-48
2022/08/03 12:52:53;;;;;;;4.18;1.73;;;25.10;84.20;;;;;;5052112;28;20033;-45
2022/08/03 12:55:21;;;;;;;6.47;1.90;;;25.30;49.50;;;;;;5051872;28;20025;-46
2022/08/03 12:57:47;;;;;;;5.60;1.80;;;;;;;;;;5052156;28;20037;-46
2022/08/03 13:00:15;;;;;;;6.18;1.80;;;25.20;48.70;;;;;;5051960;28;20021;-46
2022/08/03 13:02:42;;;;;;;4.78;1.58;;;;;;;;;;5051875;28;20078;-45
2022/08/03 13:05:13;;;;;;;5.97;1.77;;;25.10;83.80;;;;;;5051945;28;20021;-46
2022/08/03 13:07:46;;;;;;;5.93;1.77;;;24.90;45.80;;;;;;5056037;28;20033;-45
2022/08/03 13:10:26;;;;;;;5.03;2.20;;;24.60;85.90;;;;;;5056246;28;20025;-46
2022/08/03 13:12:52;;;;;;;5.60;1.85;;;24.50;87.30;;;;;;5054707;28;20029;-46
2022/08/03 13:15:17;;;;;;;5.45;1.85;;;24.60;86.20;;;;;;5055865;28;20048;-46
2022/08/03 13:17:43;;;;;;;4.15;1.40;;;;;;;;;;5055877;28;20063;-47
2022/08/03 13:20:09;;;;;;;4.80;1.58;;;24.90;78.00;;;;;;5056114;28;20021;-47
2022/08/03 13:22:35;;;;;;;3.33;1.30;;;24.50;68.00;;;;;;5056026;28;20017;-48
2022/08/03 13:25:01;;;;;;;4.35;1.23;;;24.70;48.30;;;;;;5056031;28;20480;-48
2022/08/03 13:27:28;;;;;;;3.08;1.40;;;24.80;49.20;;;;;;5055751;28;20017;-45
2022/08/03 13:29:54;;;;;;;3.08;1.38;;;24.40;85.40;;;;;;5055703;28;20029;-46
2022/08/03 13:32:21;;;;;;;2.63;1.70;;;24.60;85.80;;;;;;5055667;28;20102;-46
2022/08/03 13:34:47;;;;;;;3.45;1.33;;;;;;;;;;5054263;28;20487;-48
2022/08/03 13:37:13;;;;;;;4.20;1.50;;;24.40;54.30;;;;;;5055308;28;20056;-46